Ada, Minnesota
Current Conditions -  °F | °C
As of 3:15 PM on Sunday 23 Nov 2014 (Local Time) from K3N8 Reporting Station
Overcast Overcast  
Wind Chill: 24°   Ceiling: 2200
Heat Index: 35°   Visibility: 10mi
Dew Point: 29°   Wind: 18mph
Humidity: 80%   Direction: 290°WNW
Pressure: 29.42"   Gusts: NA
Location:  47.3°N, 96.52°W
Report Text: K3N8 232115Z AUTO 29016KT 10SM OVC022 02/M02 A2942 RMK AO2 T00151016
Loading
Personal Weather Stations






























Interactive Weather Map New forecast layout! Learn more

10-Day Weather Forecast

Advertisements
Track Severe Weather on mobile